^^

..:: Metar reader and decoder ::..




OSSERVAZIONI E PREVISIONI METEOROLOGICHE DAGLI AEROPORTI ITALIANI
(messaggi METAR)

 


LIPX - Villafranca(Cv/M, Italy
Distanza dalla stazione: NNE 28km
Dati ricevuti: Thu, 25-Jul-2024 10:20
Sereno
Sereno
 Vento da E
Vento: E 15 km/h
Temperatura: 28°C
Indice di Calore: 28°C
P.to Rugiada: 16°C
Umidità: 48%
Barometro: 1013 hPa
Sommario: Sereno
Visibilità: superiore a 10 km
2024/07/25 08:20 LIPX 250820Z 08008KT 050V120 CAVOK 28/16 Q1013
LIPO - Brescia/Montichiari, Italy
Distanza dalla stazione: NO 38km
Dati ricevuti: Thu, 25-Jul-2024 10:20
Sereno
Sereno
 Vento da ENE
Vento: ENE 19 km/h
Temperatura: 28°C
Indice di Calore: 29°C
P.to Rugiada: 18°C
Umidità: 55%
Barometro: 1013 hPa
Nuvole: Sereno
Visibilità: 10 km
2024/07/25 08:20 LIPO 250820Z AUTO 06010KT 9999 NCD 28/18 Q1013
 
LIPL - Ghedi (it-Afb), Italy
Distanza dalla stazione: NO 42km
Dati ricevuti: Thu, 25-Jul-2024 09:55
Sereno
Sereno
 Vento da E
Vento: E 19 km/h
Temperatura: 27°C
Indice di Calore: 29°C
P.to Rugiada: 22°C
Umidità: 74%
Barometro: 1012 hPa
Sommario: Sereno
Visibilità: superiore a 10 km
2024/07/25 07:55 LIPL 250755Z 08010KT CAVOK 27/22 Q1012
LIMP - Parma, Italy
Distanza dalla stazione: SO 49km
Dati ricevuti: Thu, 25-Jul-2024 09:50
Sereno
Sereno
 Vento da E
Vento: E 9 km/h
Temperatura: 26°C
P.to Rugiada: 20°C
Umidità: 70%
Barometro: 1012 hPa
Sommario: Sereno
Visibilità: superiore a 10 km
2024/07/25 07:50 LIMP 250750Z 09005KT 060V120 CAVOK 26/20 Q1012
 
LIMS - Piacenza (it-Afb, Italy
Distanza dalla stazione: OSO 81km
Dati ricevuti: Thu, 25-Jul-2024 09:55
Sereno
Sereno
 Vento da E
Vento: E 11 km/h
Temperatura: 27°C
Indice di Calore: 32°C
P.to Rugiada: 26°C
Umidità: 94%
Barometro: 1012 hPa
Sommario: Sereno
Visibilità: superiore a 10 km
2024/07/25 07:55 LIMS 250755Z 09006KT CAVOK 27/26 Q1012
LIPF - Ferrara (aut), Italy
Distanza dalla stazione: ESE 84km
Dati ricevuti: Thu, 25-Jul-2024 09:55
Parz. nuvoloso
Parz. nuvoloso
 Vento da calmo
Vento: Calma
Temperatura: 29°C
Indice di Calore: 32°C
P.to Rugiada: 23°C
Umidità: 70%
Barometro: 1012 hPa
Nuvole: Parz. nuvoloso
Visibilità: 10 km
Dettaglio nuvole: Parz. nuvoloso 2438 m
2024/07/25 07:55 LIPF 250755Z 00000KT 9999 SCT080 29/23 Q1012
 
LIPE - Bologna/Borgo (a, Italy
Distanza dalla stazione: SE 88km
Dati ricevuti: Thu, 25-Jul-2024 10:20
Sereno
Sereno
 Vento da Variabile
Vento: Variabile 6 km/h
Temperatura: 27°C
Indice di Calore: 29°C
P.to Rugiada: 20°C
Umidità: 66%
Barometro: 1012 hPa
Sommario: Sereno
Visibilità: superiore a 10 km
2024/07/25 08:20 LIPE 250820Z VRB03KT CAVOK 27/20 Q1012
LIPU - Padova (civ/It-A, Italy
Distanza dalla stazione: ENE 93km
Dati ricevuti: Thu, 25-Jul-2024 09:50
Sereno
Sereno
 Vento da NE
Vento: NE 13 km/h
Temperatura: 27°C
Indice di Calore: 28°C
P.to Rugiada: 16°C
Umidità: 51%
Barometro: 1013 hPa
Sommario: Sereno
Visibilità: superiore a 10 km
2024/07/25 07:50 LIPU 250750Z 05007KT 030V090 CAVOK 27/16 Q1013
 
LIME - Bergamo/Orio Ser, Italy
Distanza dalla stazione: NO 95km
Dati ricevuti: Thu, 25-Jul-2024 10:20
Few Clouds
Few Clouds
 Vento da ESE
Vento: ESE 7 km/h
Temperatura: 27°C
Indice di Calore: 28°C
P.to Rugiada: 18°C
Umidità: 58%
Barometro: 1013 hPa
Nuvole: Few Clouds
Visibilità: 10 km
Dettaglio nuvole: Few Clouds 1981 m
2024/07/25 08:20 LIME 250820Z 12004KT 080V160 9999 FEW065 27/18 Q1013 NOSIG
LIMT - Cisa Pass, Italy
Distanza dalla stazione: SO 103km
Dati ricevuti: Mon, 23-Sep-2019 13:55
DATI Obsoleti
Nebbia
Nebbia
 Vento da calmo
Vento: Calma
Temperatura: 10°C
P.to Rugiada: 10°C
Umidità: 100%
Barometro: 1014 hPa
Sommario: Nebbia
Visibilità: 0 km
2019/09/23 11:55 LIMT 231155Z 00000KT 0000 FG VV/// 10/10 Q1014 RMK MON INVIS VAL INVIS VIS MIN 0000
 
LIVC - Cimone Mountain, Italy
Distanza dalla stazione: S 108km
Dati ricevuti: Thu, 25-Jul-2024 09:55

 Vento da N
Vento: N 11 km/h
Temperatura: 14°C
P.to Rugiada: 11°C
Umidità: 82%
Barometro: 1024 hPa
2024/07/25 07:55 LIVC 250755Z AUTO 36006KT //// 14/11 Q1024
LIVP - Paganella Mounta, Italy
Distanza dalla stazione: NNE 112km
Dati ricevuti: Thu, 25-Jul-2024 09:55
Nebbia
Nebbia
 Vento da SSO
Vento: SSO 9 km/h
Temperatura: 11°C
P.to Rugiada: 11°C
Umidità: 100%
Barometro: 1022 hPa
Sommario: Nebbia
Visibilità: 1 km
2024/07/25 07:55 LIVP 250755Z 20005KT 0900 FG VV/// 11/11 Q1022
 
LIML - Milano/Linate, Italy
Distanza dalla stazione: ONO 115km
Dati ricevuti: Thu, 25-Jul-2024 10:20
Few Clouds
Few Clouds
 Vento da ESE
Vento: ESE 13 km/h
Temperatura: 28°C
Indice di Calore: 29°C
P.to Rugiada: 18°C
Umidità: 55%
Barometro: 1013 hPa
Nuvole: Few Clouds
Visibilità: 10 km
Dettaglio nuvole: Few Clouds 1372 m
2024/07/25 08:20 LIML 250820Z 11007KT 060V150 9999 FEW045 28/18 Q1013 NOSIG
LIPS - Istrana (it-Afb), Italy
Distanza dalla stazione: ENE 123km
Dati ricevuti: Thu, 25-Jul-2024 09:55
Parz. nuvoloso
Parz. nuvoloso
 Vento da ENE
Vento: ENE 17 km/h
Temperatura: 26°C
P.to Rugiada: 18°C
Umidità: 61%
Barometro: 1013 hPa
Nuvole: Parz. nuvoloso
Visibilità: 10 km
Dettaglio nuvole: Parz. nuvoloso 1067 m
Parz. nuvoloso 2743 m
2024/07/25 07:55 LIPS 250755Z 06009KT 9999 SCT035 SCT090 26/18 Q1013
 
LIPH - Treviso(Civ/It-A, Italy
Distanza dalla stazione: ENE 127km
Dati ricevuti: Thu, 25-Jul-2024 10:20
Few Clouds
Few Clouds
 Vento da NE
Vento: NE 13 km/h
Temperatura: 27°C
Indice di Calore: 28°C
P.to Rugiada: 16°C
Umidità: 51%
Barometro: 1013 hPa
Nuvole: Few Clouds
Visibilità: 10 km
Dettaglio nuvole: Few Clouds 2286 m
2024/07/25 08:20 LIPH 250820Z AUTO 04007KT 9999 FEW075/// 27/16 Q1013
LIPZ - Venezia/Tessera, Italy
Distanza dalla stazione: ENE 133km
Dati ricevuti: Thu, 25-Jul-2024 10:20
Few Clouds
Few Clouds
 Vento da ENE
Vento: ENE 13 km/h
Temperatura: 26°C
P.to Rugiada: 16°C
Umidità: 54%
Barometro: 1013 hPa
Nuvole: Few Clouds
Visibilità: 10 km
Dettaglio nuvole: Few Clouds 1981 m
2024/07/25 08:20 LIPZ 250820Z 06007KT 9999 FEW065 26/16 Q1013 NOSIG
 
LIQW - Sarzana/Luni, Italy
Distanza dalla stazione: SSO 135km
Dati ricevuti: Thu, 25-Jul-2024 09:55
Sereno
Sereno
 Vento da NO
Vento: NO 6 km/h
Temperatura: 28°C
Indice di Calore: 30°C
P.to Rugiada: 22°C
Umidità: 70%
Barometro: 1010 hPa
Sommario: Sereno
Visibilità: superiore a 10 km
2024/07/25 07:55 LIQW 250755Z 32003KT CAVOK 28/22 Q1010
LIVR - Rolle Pass, Italy
Distanza dalla stazione: NE 150km
Dati ricevuti: Thu, 25-Jul-2024 09:55

 
2024/07/25 07:55 LIVR 250755Z ///08KT 9999 FEW010 SCT030 14/11 Q1021
 
LIPC - Cervia (it-Afb), Italy
Dati ricevuti: Thu, 25-Jul-2024 09:55
Sereno
Sereno
 Vento da ENE
Vento: ENE 4 km/h
Temperatura: 28°C
Indice di Calore: 29°C
P.to Rugiada: 20°C
Umidità: 62%
Barometro: 1012 hPa
Sommario: Sereno
Visibilità: superiore a 10 km
2024/07/25 07:55 LIPC 250755Z 06002KT CAVOK 28/20 Q1012
LIPR - Rimini (civ/It-A, Italy
Dati ricevuti: Thu, 25-Jul-2024 10:20
Sereno
Sereno
 Vento da ENE
Vento: ENE 13 km/h
Temperatura: 28°C
Indice di Calore: 29°C
P.to Rugiada: 20°C
Umidità: 62%
Barometro: 1011 hPa
Sommario: Sereno
Visibilità: superiore a 10 km
2024/07/25 08:20 LIPR 250820Z 06007KT 030V100 CAVOK 28/20 Q1011






METEO PILLOLE
Il luogo più piovoso della Terra
Lloro - Colombia
Ogni anno cadono in media 13300 millimetri di pioggia.

www.meteomincio.it